Time;durP1;ratioP1;P1;durP2;ratioP2;P2;SDS_P1;SDS_P2;PMS_P1;PMS_P2;Temp;Humidity;BMP_temperature;BMP_pressure;BME280_temperature;BME280_humidity;BME280_pressure;Samples;Min_cycle;Max_cycle;Signal;HPM_P1;HPM_P2
2023/04/24 00:01:14;;;;;;;32.88;29.38;;;8.80;99.90;;;;;;5112136;28;20054;-60
2023/04/24 00:03:41;;;;;;;31.55;28.15;;;8.70;99.90;;;;;;5114432;28;20432;-59
2023/04/24 00:06:08;;;;;;;32.97;29.38;;;8.80;99.90;;;;;;5114257;28;20130;-59
2023/04/24 00:08:35;;;;;;;31.63;28.23;;;8.70;99.90;;;;;;5114000;28;20036;-61
2023/04/24 00:11:02;;;;;;;31.88;28.45;;;8.70;99.90;;;;;;5113998;28;20356;-59
2023/04/24 00:13:29;;;;;;;31.63;28.33;;;8.80;99.90;;;;;;5112637;28;20343;-60
2023/04/24 00:15:56;;;;;;;32.60;28.88;;;8.80;99.90;;;;;;5113870;28;20035;-60
2023/04/24 00:18:23;;;;;;;31.95;27.60;;;8.80;99.90;;;;;;5113901;28;20043;-60
2023/04/24 00:20:50;;;;;;;31.67;28.20;;;8.70;99.90;;;;;;5112614;28;20466;-60
2023/04/24 00:23:16;;;;;;;34.88;28.60;;;8.70;99.90;;;;;;5113685;28;20092;-61
2023/04/24 00:25:43;;;;;;;32.63;28.02;;;8.80;99.90;;;;;;5112334;28;20047;-60
2023/04/24 00:28:10;;;;;;;32.13;28.15;;;8.80;99.90;;;;;;5113550;28;20040;-59
2023/04/24 00:30:37;;;;;;;33.38;27.70;;;8.80;99.90;;;;;;5113691;27;20111;-59
2023/04/24 00:33:04;;;;;;;32.80;28.25;;;8.70;99.90;;;;;;5097531;28;20050;-59
2023/04/24 00:35:30;;;;;;;31.67;28.15;;;8.70;99.90;;;;;;5092178;28;20044;-60
2023/04/24 00:37:57;;;;;;;31.70;27.15;;;8.80;99.90;;;;;;5108923;28;20092;-61
2023/04/24 00:40:24;;;;;;;30.65;27.33;;;8.70;99.90;;;;;;5113361;28;20126;-61
2023/04/24 00:42:51;;;;;;;29.88;26.77;;;8.70;99.90;;;;;;5113504;28;20035;-58
2023/04/24 00:45:18;;;;;;;30.20;26.52;;;8.70;99.90;;;;;;5112406;28;20040;-61
2023/04/24 00:47:45;;;;;;;28.95;25.95;;;8.70;99.90;;;;;;5113508;28;20039;-59
2023/04/24 00:50:13;;;;;;;29.70;26.45;;;8.70;99.90;;;;;;5107757;28;20444;-57
2023/04/24 00:52:40;;;;;;;29.10;26.00;;;8.80;99.90;;;;;;5113425;28;20035;-60
2023/04/24 00:55:08;;;;;;;32.13;26.85;;;8.70;99.90;;;;;;5095110;28;20047;-59
2023/04/24 00:57:35;;;;;;;28.13;25.13;;;8.70;99.90;;;;;;5113200;28;20051;-58
2023/04/24 01:00:03;;;;;;;29.48;25.70;;;8.70;99.90;;;;;;5113350;28;20134;-59
2023/04/24 01:02:30;;;;;;;29.08;25.67;;;8.70;99.90;;;;;;5113322;28;20402;-60
2023/04/24 01:04:57;;;;;;;27.92;24.92;;;8.70;99.90;;;;;;5111307;28;20047;-59
2023/04/24 01:07:23;;;;;;;28.05;25.05;;;8.70;99.90;;;;;;5111008;28;20039;-59
2023/04/24 01:09:51;;;;;;;30.02;26.15;;;8.70;99.90;;;;;;5111765;28;20154;-59
2023/04/24 01:12:18;;;;;;;28.23;25.23;;;8.70;99.90;;;;;;5113168;28;20031;-61
2023/04/24 01:14:45;;;;;;;28.08;25.13;;;8.70;99.90;;;;;;5111733;28;20039;-60
2023/04/24 01:17:15;;;;;;;27.00;24.08;;;8.70;99.90;;;;;;5113057;28;20055;-60
2023/04/24 01:19:44;;;;;;;28.95;25.10;;;8.70;99.90;;;;;;5113012;28;20478;-60
2023/04/24 01:22:12;;;;;;;28.00;24.10;;;8.70;99.90;;;;;;5111648;28;20082;-62
2023/04/24 01:24:38;;;;;;;27.15;24.35;;;8.70;99.90;;;;;;5113029;28;20047;-60
2023/04/24 01:27:05;;;;;;;26.92;24.10;;;8.70;99.90;;;;;;5109576;28;20382;-58
2023/04/24 01:29:32;;;;;;;27.60;24.70;;;8.80;99.90;;;;;;5093239;28;20077;-60
2023/04/24 01:31:58;;;;;;;28.63;25.65;;;8.80;99.90;;;;;;5093635;28;20040;-57
2023/04/24 01:34:25;;;;;;;28.23;25.17;;;8.80;99.90;;;;;;5092081;28;20040;-62
2023/04/24 01:36:52;;;;;;;27.60;24.67;;;8.80;99.90;;;;;;5100798;28;20043;-61
2023/04/24 01:39:20;;;;;;;28.30;25.30;;;8.80;99.90;;;;;;5113198;28;20440;-59
2023/04/24 01:41:47;;;;;;;27.17;24.02;;;8.80;99.90;;;;;;5113075;28;20134;-61
2023/04/24 01:44:14;;;;;;;27.83;24.77;;;8.80;99.90;;;;;;5112845;28;20047;-60
2023/04/24 01:46:40;;;;;;;30.23;24.63;;;8.80;99.90;;;;;;5111716;28;20513;-61
2023/04/24 01:49:07;;;;;;;29.27;25.45;;;8.70;99.90;;;;;;5094423;28;20134;-62
2023/04/24 01:51:34;;;;;;;26.55;23.45;;;8.70;99.90;;;;;;5111400;28;20089;-60
2023/04/24 01:54:02;;;;;;;29.00;24.83;;;8.70;99.90;;;;;;5112900;28;20085;-61
2023/04/24 01:56:29;;;;;;;28.80;24.70;;;8.70;99.90;;;;;;5112666;28;20032;-60
2023/04/24 01:58:56;;;;;;;27.05;24.17;;;8.60;99.90;;;;;;5111107;28;20083;-59
2023/04/24 02:01:22;;;;;;;27.25;23.80;;;8.60;99.90;;;;;;5112623;28;20052;-59
2023/04/24 02:03:49;;;;;;;28.30;25.20;;;8.60;99.90;;;;;;5112625;28;20050;-61
2023/04/24 02:06:16;;;;;;;27.52;24.55;;;8.60;99.90;;;;;;5112603;28;20458;-59
2023/04/24 02:08:43;;;;;;;28.50;24.83;;;8.60;99.90;;;;;;5112559;28;20039;-62
2023/04/24 02:11:10;;;;;;;28.05;25.05;;;8.60;99.90;;;;;;5111368;28;20120;-62
2023/04/24 02:13:36;;;;;;;27.33;24.35;;;8.60;99.90;;;;;;5112740;28;20069;-62
2023/04/24 02:16:03;;;;;;;28.73;24.02;;;8.60;99.90;;;;;;5111335;28;20127;-59
2023/04/24 02:18:30;;;;;;;27.98;24.25;;;8.60;99.90;;;;;;5116010;28;20042;-61
2023/04/24 02:20:57;;;;;;;26.52;23.63;;;8.60;99.90;;;;;;5115215;28;20036;-61
2023/04/24 02:23:23;;;;;;;26.35;23.55;;;8.70;99.90;;;;;;5115074;28;20055;-60
2023/04/24 02:25:50;;;;;;;28.92;23.58;;;8.70;99.90;;;;;;5115140;28;20040;-62
2023/04/24 02:28:17;;;;;;;28.17;24.23;;;8.70;99.90;;;;;;5096388;28;20068;-58
2023/04/24 02:30:43;;;;;;;27.75;23.35;;;8.60;99.90;;;;;;5095331;28;20044;-61
2023/04/24 02:33:10;;;;;;;27.08;23.80;;;8.60;99.90;;;;;;5096142;28;20055;-62
2023/04/24 02:35:37;;;;;;;25.88;23.15;;;8.60;99.90;;;;;;5108760;28;20047;-62
2023/04/24 02:38:04;;;;;;;28.67;23.73;;;8.60;99.90;;;;;;5078386;28;20043;-59
2023/04/24 02:40:30;;;;;;;26.58;23.23;;;8.60;99.90;;;;;;5096258;28;20486;-58
2023/04/24 02:42:57;;;;;;;26.27;23.45;;;8.60;99.90;;;;;;5078250;28;20494;-60
2023/04/24 02:45:24;;;;;;;26.42;23.65;;;8.60;99.90;;;;;;5096106;28;20490;-60
2023/04/24 02:47:51;;;;;;;29.15;23.00;;;8.60;99.90;;;;;;5096326;28;20047;-60
2023/04/24 02:50:17;;;;;;;28.40;23.20;;;8.60;99.90;;;;;;5095923;28;20043;-62
2023/04/24 02:52:44;;;;;;;26.60;22.50;;;8.50;99.90;;;;;;5094990;28;20040;-58
2023/04/24 02:55:11;;;;;;;24.05;21.50;;;8.50;99.90;;;;;;5095887;28;20063;-60
2023/04/24 02:57:38;;;;;;;25.23;22.23;;;8.50;99.90;;;;;;5094433;28;20044;-62
2023/04/24 03:00:06;;;;;;;25.27;22.40;;;8.50;99.90;;;;;;5094430;28;20075;-60
2023/04/24 03:02:33;;;;;;;27.42;21.85;;;8.50;99.90;;;;;;5094818;28;20042;-60
2023/04/24 03:05:02;;;;;;;24.40;20.90;;;8.50;99.90;;;;;;5094303;28;20138;-58
2023/04/24 03:07:28;;;;;;;27.10;21.33;;;8.50;99.90;;;;;;5109504;28;20045;-58
2023/04/24 03:09:57;;;;;;;25.60;21.25;;;8.50;99.90;;;;;;5114948;28;20486;-59
2023/04/24 03:12:24;;;;;;;24.85;20.35;;;8.50;99.90;;;;;;5115116;28;20494;-59
2023/04/24 03:14:51;;;;;;;22.73;20.33;;;8.50;99.90;;;;;;5097147;28;20135;-61
2023/04/24 03:17:18;;;;;;;24.00;20.40;;;8.50;99.90;;;;;;5103101;28;20382;-61
2023/04/24 03:19:45;;;;;;;23.50;21.05;;;8.40;99.90;;;;;;5095510;28;20123;-61
2023/04/24 03:22:12;;;;;;;23.50;20.83;;;8.40;99.90;;;;;;5094384;28;20064;-59
2023/04/24 03:24:40;;;;;;;22.83;20.35;;;8.40;99.90;;;;;;5077560;28;20048;-57
2023/04/24 03:27:07;;;;;;;26.38;21.33;;;8.40;99.90;;;;;;5094354;28;20047;-57
2023/04/24 03:29:55;;;;;;;24.65;20.05;;;8.40;99.90;;;;;;5093316;28;20058;-58
2023/04/24 03:32:27;;;;;;;21.80;19.30;;;8.50;99.90;;;;;;5094214;28;20495;-61
2023/04/24 03:34:53;;;;;;;23.50;20.45;;;8.50;99.90;;;;;;5094108;28;20051;-61
2023/04/24 03:37:20;;;;;;;23.30;20.80;;;8.50;99.90;;;;;;5093376;28;20064;-60
2023/04/24 03:39:57;;;;;;;22.40;20.02;;;8.40;99.90;;;;;;5093836;28;20082;-61
2023/04/24 03:42:25;;;;;;;23.48;19.52;;;8.40;99.90;;;;;;5093618;28;20052;-59
2023/04/24 03:44:54;;;;;;;22.15;19.85;;;8.40;99.90;;;;;;5093470;28;20044;-58
2023/04/24 03:47:26;;;;;;;21.90;19.33;;;8.50;99.90;;;;;;5093486;28;20078;-60
2023/04/24 03:49:57;;;;;;;22.33;19.95;;;8.40;99.90;;;;;;5076978;28;20040;-60
2023/04/24 03:52:24;;;;;;;21.23;18.85;;;8.40;99.90;;;;;;5093478;28;20553;-60
2023/04/24 03:54:50;;;;;;;21.65;19.45;;;8.40;99.90;;;;;;5093497;28;20058;-60
2023/04/24 03:57:17;;;;;;;21.77;19.15;;;8.40;99.90;;;;;;5093326;28;20490;-61
2023/04/24 03:59:56;;;;;;;21.98;19.63;;;8.40;99.90;;;;;;5097793;28;20142;-60
2023/04/24 04:02:24;;;;;;;24.25;19.23;;;8.40;99.90;;;;;;5113193;28;20043;-60
2023/04/24 04:04:51;;;;;;;24.55;20.08;;;8.40;99.90;;;;;;5113186;28;20047;-61
2023/04/24 04:07:19;;;;;;;21.40;18.88;;;8.40;99.90;;;;;;5109831;28;20185;-60
2023/04/24 04:09:46;;;;;;;22.30;19.05;;;8.30;99.90;;;;;;5126606;27;20514;-62
2023/04/24 04:12:13;;;;;;;23.25;18.55;;;8.30;99.90;;;;;;5112895;28;20474;-62
2023/04/24 04:14:39;;;;;;;24.25;19.73;;;8.30;99.90;;;;;;5112654;28;20031;-60
2023/04/24 04:17:06;;;;;;;21.00;18.80;;;8.30;99.90;;;;;;5101590;28;20040;-61
2023/04/24 04:19:33;;;;;;;21.50;19.17;;;8.40;99.90;;;;;;5093102;28;20065;-61
2023/04/24 04:22:00;;;;;;;24.05;19.48;;;8.40;99.90;;;;;;5094631;28;20052;-60
2023/04/24 04:24:41;;;;;;;21.25;18.52;;;8.40;99.90;;;;;;5093096;28;20040;-60
2023/04/24 04:27:09;;;;;;;20.80;18.40;;;8.30;99.90;;;;;;5093050;28;20044;-60
2023/04/24 04:29:44;;;;;;;20.30;18.20;;;8.40;99.90;;;;;;5092741;28;20043;-58
2023/04/24 04:32:13;;;;;;;21.88;19.25;;;8.40;99.90;;;;;;5092952;28;20040;-62
2023/04/24 04:34:40;;;;;;;20.85;18.25;;;8.40;99.90;;;;;;5092930;28;20554;-60
2023/04/24 04:37:11;;;;;;;22.63;20.23;;;8.30;99.90;;;;;;5104488;28;20044;-62
2023/04/24 04:40:06;;;;;;;21.45;19.15;;;8.20;99.90;;;;;;5090627;28;20059;-62
2023/04/24 04:42:40;;;;;;;22.73;19.67;;;8.10;99.90;;;;;;5092558;28;20109;-63
2023/04/24 04:45:08;;;;;;;22.60;19.88;;;8.10;99.90;;;;;;5092529;28;20444;-61
2023/04/24 04:47:46;;;;;;;23.75;20.42;;;8.10;99.90;;;;;;5092536;28;20050;-62
2023/04/24 04:50:13;;;;;;;25.33;21.15;;;8.10;99.90;;;;;;5092283;28;20483;-62
2023/04/24 04:52:40;;;;;;;22.80;20.20;;;8.10;99.90;;;;;;5075596;28;20047;-61
2023/04/24 04:55:19;;;;;;;25.80;21.08;;;8.00;99.90;;;;;;5077566;28;20364;-60
2023/04/24 04:58:04;;;;;;;23.90;20.58;;;8.00;99.90;;;;;;5112254;28;20521;-62
2023/04/24 05:00:35;;;;;;;23.95;21.35;;;8.00;99.90;;;;;;5111985;28;20536;-61
2023/04/24 05:03:07;;;;;;;;;;;8.00;99.90;;;;;;5112316;28;20505;-59
2023/04/24 05:05:48;;;;;;;25.20;20.05;;;7.90;99.90;;;;;;5111994;28;19991;-60
2023/04/24 05:08:17;;;;;;;23.98;21.20;;;7.90;99.90;;;;;;5111790;28;20075;-60
2023/04/24 05:10:52;;;;;;;24.00;21.25;;;8.00;99.90;;;;;;5111734;28;20044;-58
2023/04/24 05:13:20;;;;;;;26.88;22.30;;;8.00;99.90;;;;;;5112022;28;20036;-58
2023/04/24 05:15:59;;;;;;;25.60;20.88;;;8.00;99.90;;;;;;5096787;28;20043;-59
2023/04/24 05:18:28;;;;;;;24.88;21.63;;;8.10;99.90;;;;;;5106105;28;20040;-59
2023/04/24 05:20:55;;;;;;;23.15;20.65;;;8.10;99.90;;;;;;5092274;28;20146;-59
2023/04/24 05:23:23;;;;;;;23.33;20.88;;;8.00;99.90;;;;;;5092283;28;20047;-61
2023/04/24 05:25:52;;;;;;;24.48;20.60;;;8.00;99.90;;;;;;5092453;28;20552;-60
2023/04/24 05:28:21;;;;;;;23.30;20.42;;;8.10;99.90;;;;;;5113281;28;20047;-60
2023/04/24 05:31:02;;;;;;;24.70;20.70;;;8.10;99.90;;;;;;5111652;28;20100;-61
2023/04/24 05:33:28;;;;;;;24.10;20.30;;;8.00;99.90;;;;;;5111751;28;20052;-61
2023/04/24 05:35:55;;;;;;;26.75;20.98;;;8.00;99.90;;;;;;5110582;28;20036;-61
2023/04/24 05:38:22;;;;;;;23.02;19.67;;;8.00;99.90;;;;;;5107728;28;20482;-59
2023/04/24 05:40:49;;;;;;;23.85;20.10;;;8.00;99.90;;;;;;5111794;28;20050;-59
2023/04/24 05:43:16;;;;;;;24.48;20.40;;;8.00;99.90;;;;;;5113131;28;20039;-57
2023/04/24 05:45:43;;;;;;;21.95;19.35;;;8.00;99.90;;;;;;5111882;28;20390;-62
2023/04/24 05:48:10;;;;;;;23.00;19.67;;;8.00;99.90;;;;;;5111768;28;20499;-61
2023/04/24 05:50:36;;;;;;;24.08;19.42;;;8.00;99.90;;;;;;5111696;28;20044;-59
2023/04/24 05:53:04;;;;;;;22.75;19.90;;;8.10;99.90;;;;;;5114686;28;20063;-60
2023/04/24 05:55:34;;;;;;;24.50;18.48;;;8.10;99.90;;;;;;5115428;28;20044;-59
2023/04/24 05:58:00;;;;;;;20.92;18.63;;;8.20;99.90;;;;;;5114904;28;20498;-61
2023/04/24 06:00:29;;;;;;;22.63;18.77;;;8.20;99.90;;;;;;5115488;28;20048;-62
2023/04/24 06:03:03;;;;;;;20.98;17.70;;;8.20;99.90;;;;;;5115526;28;20044;-58
2023/04/24 06:05:30;;;;;;;21.98;17.50;;;8.20;99.90;;;;;;5115196;28;20047;-62
2023/04/24 06:07:57;;;;;;;22.70;18.73;;;8.20;99.90;;;;;;5116387;28;20135;-59
2023/04/24 06:10:28;;;;;;;19.38;16.38;;;8.30;99.90;;;;;;5115315;28;20075;-62
2023/04/24 06:13:01;;;;;;;20.70;16.52;;;8.30;99.90;;;;;;5105879;28;20048;-61
2023/04/24 06:15:33;;;;;;;18.90;16.77;;;8.40;99.90;;;;;;5095469;28;20127;-62
2023/04/24 06:18:10;;;;;;;20.70;16.88;;;8.40;99.90;;;;;;5095467;28;20109;-61
2023/04/24 06:20:37;;;;;;;21.50;16.85;;;8.50;99.90;;;;;;5095397;28;20520;-60
2023/04/24 06:23:04;;;;;;;21.13;17.77;;;8.50;99.90;;;;;;5096887;28;20474;-61
2023/04/24 06:25:32;;;;;;;19.95;17.13;;;8.50;99.90;;;;;;5095306;28;20048;-61
2023/04/24 06:27:59;;;;;;;22.55;16.25;;;8.50;99.90;;;;;;5096636;28;20071;-61
2023/04/24 06:30:27;;;;;;;19.55;17.08;;;8.50;99.90;;;;;;5095186;28;20040;-62
2023/04/24 06:32:55;;;;;;;21.15;15.77;;;8.60;99.90;;;;;;5095305;28;20043;-61
2023/04/24 06:35:31;;;;;;;21.55;16.45;;;8.60;99.90;;;;;;5095094;28;20044;-62
2023/04/24 06:37:58;;;;;;;20.75;15.38;;;8.70;99.90;;;;;;5094582;28;20089;-63
2023/04/24 06:40:25;;;;;;;19.27;8.90;;;8.80;99.90;;;;;;5115117;28;20460;-59
2023/04/24 06:42:51;;;;;;;12.63;7.22;;;8.70;99.90;;;;;;5116025;28;20040;-61
2023/04/24 06:45:18;;;;;;;13.68;6.47;;;8.60;99.90;;;;;;5116381;28;20035;-62
2023/04/24 06:47:45;;;;;;;12.48;6.18;;;8.50;99.90;;;;;;5115828;28;20446;-63
2023/04/24 06:50:12;;;;;;;15.38;5.82;;;8.50;99.90;;;;;;5115703;28;20043;-62
2023/04/24 06:52:38;;;;;;;9.38;4.95;;;8.40;99.90;;;;;;5114966;28;20089;-63
2023/04/24 06:55:05;;;;;;;12.93;4.75;;;8.40;99.90;;;;;;5115799;28;20050;-63
2023/04/24 06:57:32;;;;;;;8.98;3.85;;;8.40;99.90;;;;;;5115781;28;20055;-62
2023/04/24 06:59:59;;;;;;;12.02;3.90;;;8.50;99.90;;;;;;5115523;28;20048;-63
2023/04/24 07:02:26;;;;;;;7.70;3.45;;;8.60;99.90;;;;;;5096807;28;20044;-63
2023/04/24 07:04:53;;;;;;;7.68;3.03;;;8.70;99.90;;;;;;5095061;28;20036;-59
2023/04/24 07:07:20;;;;;;;8.27;3.30;;;8.60;99.90;;;;;;5107192;28;20043;-60
2023/04/24 07:09:50;;;;;;;11.75;3.25;;;8.60;99.90;;;;;;5115238;28;20402;-63
2023/04/24 07:12:19;;;;;;;9.32;3.20;;;8.50;99.90;;;;;;5115552;28;20576;-60
2023/04/24 07:14:46;;;;;;;8.32;3.08;;;8.50;99.90;;;;;;5115502;28;20745;-63
2023/04/24 07:17:13;;;;;;;12.90;3.50;;;8.40;99.90;;;;;;5114349;28;20036;-63
2023/04/24 07:19:40;;;;;;;8.90;3.38;;;8.40;99.90;;;;;;5115359;28;20053;-63
2023/04/24 07:22:07;;;;;;;10.98;3.58;;;8.40;99.90;;;;;;5115334;28;20452;-63
2023/04/24 07:24:33;;;;;;;10.63;4.10;;;8.40;99.90;;;;;;5114015;28;20039;-61
2023/04/24 07:27:03;;;;;;;10.93;3.90;;;8.30;99.90;;;;;;5114080;28;20047;-61
2023/04/24 07:29:30;;;;;;;11.98;4.10;;;8.30;99.90;;;;;;5115100;28;20092;-60
2023/04/24 07:31:57;;;;;;;10.18;3.63;;;8.40;99.90;;;;;;5114964;28;20031;-60
2023/04/24 07:34:24;;;;;;;10.50;3.20;;;8.40;99.90;;;;;;5114973;28;20092;-62
2023/04/24 07:36:50;;;;;;;7.47;3.33;;;8.40;99.90;;;;;;5101116;28;20074;-62
2023/04/24 07:39:17;;;;;;;11.88;4.28;;;8.40;99.90;;;;;;5114025;28;20042;-61
2023/04/24 07:41:44;;;;;;;11.02;3.90;;;8.40;99.90;;;;;;5099426;28;20040;-58
2023/04/24 07:44:11;;;;;;;11.70;4.10;;;8.40;99.90;;;;;;5094124;28;20036;-62
2023/04/24 07:46:38;;;;;;;11.60;5.15;;;8.50;99.90;;;;;;5094833;28;20546;-62
2023/04/24 07:49:05;;;;;;;8.30;3.10;;;8.50;99.90;;;;;;5093720;28;20064;-62
2023/04/24 07:51:39;;;;;;;9.23;3.10;;;8.50;99.90;;;;;;5113251;28;20040;-59
2023/04/24 07:54:06;;;;;;;8.40;3.22;;;8.50;99.90;;;;;;5114223;28;20063;-62
2023/04/24 07:56:32;;;;;;;6.72;2.80;;;8.50;99.90;;;;;;5114058;28;20050;-60
2023/04/24 07:59:00;;;;;;;7.75;3.58;;;8.50;99.90;;;;;;5113914;28;20143;-61
2023/04/24 08:01:27;;;;;;;9.80;3.05;;;8.60;99.90;;;;;;5113069;27;20047;-61
2023/04/24 08:03:54;;;;;;;11.68;3.10;;;8.70;99.90;;;;;;5112898;28;20505;-63
2023/04/24 08:06:21;;;;;;;7.88;2.65;;;8.70;99.90;;;;;;5113091;28;20114;-63
2023/04/24 08:08:48;;;;;;;9.13;2.92;;;8.70;99.90;;;;;;5107065;28;20039;-62
2023/04/24 08:11:15;;;;;;;9.38;2.80;;;8.80;99.90;;;;;;5113447;28;20035;-61
2023/04/24 08:13:41;;;;;;;8.40;2.90;;;8.80;99.90;;;;;;5109246;28;20082;-60
2023/04/24 08:16:08;;;;;;;8.57;2.80;;;8.80;99.90;;;;;;5113173;28;20043;-60
2023/04/24 08:18:35;;;;;;;9.60;2.72;;;8.80;99.90;;;;;;5108768;28;20040;-62
2023/04/24 08:21:02;;;;;;;7.40;2.65;;;8.80;99.90;;;;;;5105828;28;20494;-62
2023/04/24 08:23:29;;;;;;;7.38;3.05;;;8.80;99.90;;;;;;5094613;28;20050;-60
2023/04/24 08:25:57;;;;;;;8.77;3.17;;;8.90;99.90;;;;;;5094126;28;20046;-63
2023/04/24 08:28:23;;;;;;;11.07;2.80;;;9.00;99.90;;;;;;5098100;28;20039;-63
2023/04/24 08:30:54;;;;;;;7.18;2.78;;;9.00;99.90;;;;;;5093678;28;20044;-64
2023/04/24 08:33:21;;;;;;;7.65;3.00;;;9.00;99.90;;;;;;5098003;28;20458;-63
2023/04/24 08:35:48;;;;;;;6.97;3.28;;;9.00;99.90;;;;;;5094984;28;20067;-62
2023/04/24 08:38:15;;;;;;;8.65;3.30;;;9.10;99.90;;;;;;5094789;28;20040;-62
2023/04/24 08:40:42;;;;;;;7.82;3.15;;;9.30;99.90;;;;;;5094845;28;20501;-63
2023/04/24 08:43:08;;;;;;;11.00;3.67;;;9.40;99.90;;;;;;5111836;28;20048;-59
2023/04/24 08:45:35;;;;;;;7.80;2.88;;;9.50;99.90;;;;;;5111992;28;20142;-62
2023/04/24 08:48:02;;;;;;;7.97;3.33;;;9.50;99.90;;;;;;5107056;28;20047;-63
2023/04/24 08:50:29;;;;;;;7.95;3.38;;;9.50;99.90;;;;;;5103073;28;20032;-62
2023/04/24 08:52:56;;;;;;;9.73;3.40;;;9.50;99.90;;;;;;5097569;28;20036;-64
2023/04/24 08:55:23;;;;;;;8.50;3.30;;;9.60;99.90;;;;;;5113100;28;20036;-62
2023/04/24 08:57:50;;;;;;;12.45;3.97;;;9.60;99.90;;;;;;5111273;28;20052;-61
2023/04/24 09:00:17;;;;;;;9.10;3.95;;;9.80;99.90;;;;;;5111090;28;20035;-62
2023/04/24 09:02:43;;;;;;;6.30;3.30;;;9.90;99.90;;;;;;5112804;28;20126;-60
2023/04/24 09:05:11;;;;;;;10.48;3.97;;;10.00;99.90;;;;;;5101033;28;20036;-63
2023/04/24 09:07:38;;;;;;;10.65;4.32;;;10.20;99.90;;;;;;5113167;28;20069;-63
2023/04/24 09:10:05;;;;;;;6.95;3.67;;;10.30;99.90;;;;;;5111264;28;20119;-62
2023/04/24 09:12:32;;;;;;;6.65;3.75;;;10.40;99.90;;;;;;5111691;28;20043;-62
2023/04/24 09:14:58;;;;;;;8.27;4.43;;;10.60;99.90;;;;;;5106411;28;20040;-62
2023/04/24 09:17:26;;;;;;;152.27;115.60;;;10.70;99.90;;;;;;5112003;28;20069;-62
2023/04/24 09:19:53;;;;;;;15.25;10.45;;;10.90;99.90;;;;;;5107217;28;20440;-62
2023/04/24 09:22:20;;;;;;;10.45;5.63;;;10.90;99.90;;;;;;5112067;28;20063;-62
2023/04/24 09:24:47;;;;;;;10.10;4.57;;;10.90;99.90;;;;;;5112316;28;20126;-61
2023/04/24 09:27:16;;;;;;;9.52;3.78;;;10.80;99.90;;;;;;5113164;28;20055;-62
2023/04/24 09:29:43;;;;;;;10.60;4.30;;;10.70;99.90;;;;;;5115671;28;20079;-63
2023/04/24 09:32:10;;;;;;;6.70;3.90;;;10.70;99.90;;;;;;5114162;28;20082;-62
2023/04/24 09:34:37;;;;;;;7.82;3.47;;;10.80;99.90;;;;;;5116130;28;20448;-62
2023/04/24 09:37:05;;;;;;;8.75;3.85;;;10.90;99.90;;;;;;5115854;28;20134;-61
2023/04/24 09:39:32;;;;;;;8.82;4.15;;;11.00;99.90;;;;;;5112100;28;20057;-62
2023/04/24 09:41:59;;;;;;;8.27;3.85;;;11.10;99.90;;;;;;5116285;27;20077;-62
2023/04/24 09:44:26;;;;;;;7.45;3.97;;;11.20;99.90;;;;;;5114937;28;20044;-62
2023/04/24 09:46:53;;;;;;;7.07;3.80;;;11.40;99.90;;;;;;5105636;28;20036;-60
2023/04/24 09:49:19;;;;;;;7.95;4.85;;;11.50;99.90;;;;;;5097033;28;20044;-62
2023/04/24 09:51:46;;;;;;;6.32;3.65;;;11.60;99.90;;;;;;5097107;28;20123;-63
2023/04/24 09:54:13;;;;;;;9.18;4.07;;;11.60;99.90;;;;;;5095795;28;20081;-61
2023/04/24 09:56:40;;;;;;;8.85;4.45;;;11.70;99.90;;;;;;5096968;28;20044;-58
2023/04/24 09:59:07;;;;;;;11.48;4.80;;;11.70;99.90;;;;;;5096850;28;20414;-60
2023/04/24 10:01:34;;;;;;;6.15;4.05;;;11.90;99.90;;;;;;5096846;28;20101;-62
2023/04/24 10:04:01;;;;;;;10.65;4.78;;;11.80;99.90;;;;;;5105183;28;20176;-61
2023/04/24 10:06:27;;;;;;;8.45;4.75;;;11.80;99.90;;;;;;5116642;28;20051;-61
2023/04/24 10:08:56;;;;;;;11.52;4.50;;;11.70;99.90;;;;;;5101306;28;20079;-60
2023/04/24 10:11:22;;;;;;;8.60;4.35;;;11.80;99.90;;;;;;5095285;28;20093;-61
2023/04/24 10:13:49;;;;;;;9.43;3.78;;;11.90;99.90;;;;;;5104598;28;20044;-61
2023/04/24 10:16:16;;;;;;;7.90;3.95;;;11.90;99.90;;;;;;5114525;28;20114;-59
2023/04/24 10:18:43;;;;;;;9.60;4.10;;;11.80;99.90;;;;;;5096341;28;20036;-60
2023/04/24 10:21:09;;;;;;;9.90;4.72;;;11.80;99.90;;;;;;5110193;28;20047;-61
2023/04/24 10:23:36;;;;;;;9.23;3.97;;;11.80;99.90;;;;;;5116053;28;20071;-60
2023/04/24 10:26:03;;;;;;;11.85;4.35;;;11.90;99.90;;;;;;5115905;28;20046;-61
2023/04/24 10:28:30;;;;;;;8.70;4.10;;;12.00;99.90;;;;;;5115839;28;20131;-61
2023/04/24 10:30:57;;;;;;;7.32;4.05;;;11.90;99.90;;;;;;5114185;28;20035;-61
2023/04/24 10:33:23;;;;;;;7.93;3.90;;;12.00;99.90;;;;;;5114618;28;20035;-61
2023/04/24 10:35:50;;;;;;;8.15;4.13;;;12.10;99.90;;;;;;5115982;28;20044;-60
2023/04/24 10:38:17;;;;;;;10.55;4.10;;;12.10;99.90;;;;;;5111346;28;20505;-61
2023/04/24 10:40:44;;;;;;;8.05;4.10;;;12.30;99.90;;;;;;5115557;28;20048;-61
2023/04/24 10:43:11;;;;;;;8.60;3.75;;;12.30;99.90;;;;;;5115665;28;20040;-62
2023/04/24 10:45:38;;;;;;;8.73;4.35;;;12.30;99.90;;;;;;5115801;28;20460;-61
2023/04/24 10:48:07;;;;;;;8.48;4.38;;;12.10;99.90;;;;;;5115648;27;20440;-62
2023/04/24 10:50:34;;;;;;;7.80;3.92;;;12.10;99.90;;;;;;5115521;28;20126;-63
2023/04/24 10:53:00;;;;;;;11.18;4.32;;;12.10;99.90;;;;;;5112749;28;20477;-63
2023/04/24 10:55:27;;;;;;;8.73;3.90;;;12.20;99.90;;;;;;5115550;28;20487;-63
2023/04/24 10:57:54;;;;;;;9.02;4.03;;;12.10;99.90;;;;;;5114220;28;20071;-62
2023/04/24 11:00:21;;;;;;;8.90;4.07;;;12.20;99.90;;;;;;5109649;28;20386;-62
2023/04/24 11:02:52;;;;;;;9.55;4.15;;;12.10;99.90;;;;;;5115238;28;20472;-63
2023/04/24 11:05:19;;;;;;;9.90;4.00;;;12.20;99.90;;;;;;5113880;28;20043;-61
2023/04/24 11:07:46;;;;;;;9.07;3.97;;;12.30;99.90;;;;;;5115133;28;20096;-62
2023/04/24 11:10:13;;;;;;;11.45;4.03;;;12.30;99.90;;;;;;5108435;28;20047;-63
2023/04/24 11:12:39;;;;;;;13.05;4.28;;;12.30;99.90;;;;;;5115137;28;20437;-62
2023/04/24 11:15:06;;;;;;;10.98;5.07;;;12.20;99.90;;;;;;5101364;28;20537;-63
2023/04/24 11:17:33;;;;;;;6.90;4.22;;;12.20;99.90;;;;;;5094186;28;20051;-63
2023/04/24 11:20:00;;;;;;;9.85;4.00;;;12.20;99.90;;;;;;5101473;28;20376;-63
2023/04/24 11:22:41;;;;;;;10.85;4.68;;;12.20;99.90;;;;;;5113811;28;20054;-62
2023/04/24 11:25:08;;;;;;;9.45;4.85;;;12.30;99.90;;;;;;5112650;28;20063;-62
2023/04/24 11:27:34;;;;;;;9.77;4.97;;;12.30;99.90;;;;;;5114398;28;20490;-61
2023/04/24 11:30:01;;;;;;;9.45;5.20;;;12.50;99.90;;;;;;5113181;28;20082;-60
2023/04/24 11:32:28;;;;;;;10.07;4.55;;;12.70;99.90;;;;;;5114854;28;20043;-63
2023/04/24 11:34:55;;;;;;;8.57;4.68;;;12.60;99.90;;;;;;5108434;28;20471;-62
2023/04/24 11:37:23;;;;;;;10.75;5.40;;;12.80;99.90;;;;;;5115031;28;20062;-63
2023/04/24 11:39:49;;;;;;;11.50;4.93;;;13.00;99.90;;;;;;5110065;28;20060;-60
2023/04/24 11:42:16;;;;;;;9.35;4.70;;;13.10;99.90;;;;;;5115205;28;20040;-62
2023/04/24 11:44:43;;;;;;;10.32;4.78;;;13.20;99.90;;;;;;5114752;28;20044;-60
2023/04/24 11:47:10;;;;;;;10.20;5.22;;;13.30;99.90;;;;;;5109669;28;20501;-62
2023/04/24 11:49:36;;;;;;;13.35;5.35;;;13.40;99.90;;;;;;5114154;28;20044;-60
2023/04/24 11:52:03;;;;;;;10.45;5.47;;;13.50;99.90;;;;;;5109746;28;20389;-62
2023/04/24 11:54:30;;;;;;;10.85;5.35;;;13.40;99.90;;;;;;5114721;28;20130;-62
2023/04/24 11:56:57;;;;;;;10.70;5.20;;;13.10;99.90;;;;;;5113805;28;20036;-63
2023/04/24 11:59:24;;;;;;;10.15;5.60;;;12.90;99.90;;;;;;5094567;28;20081;-61
2023/04/24 12:01:51;;;;;;;8.50;5.07;;;12.90;99.90;;;;;;5094631;28;20044;-62
2023/04/24 12:04:17;;;;;;;10.55;5.20;;;13.00;99.90;;;;;;5102584;28;20048;-60
2023/04/24 12:06:45;;;;;;;11.27;5.25;;;13.00;99.90;;;;;;5094495;28;20174;-61
2023/04/24 12:09:12;;;;;;;11.40;5.15;;;12.90;99.90;;;;;;5100344;28;20135;-61
2023/04/24 12:11:44;;;;;;;9.38;4.80;;;12.90;99.90;;;;;;5114491;28;20093;-61
2023/04/24 12:14:11;;;;;;;8.80;4.85;;;12.90;99.90;;;;;;5094137;28;20130;-62
2023/04/24 12:16:38;;;;;;;9.90;5.38;;;12.90;99.90;;;;;;5086132;28;20525;-63
2023/04/24 12:19:05;;;;;;;10.18;5.00;;;12.90;99.90;;;;;;5094007;28;20060;-60
2023/04/24 12:21:32;;;;;;;9.10;5.63;;;13.00;99.90;;;;;;5113924;28;20050;-61
2023/04/24 12:23:59;;;;;;;11.70;5.60;;;13.00;99.90;;;;;;5114193;28;20402;-63
2023/04/24 12:26:26;;;;;;;14.20;5.90;;;13.00;99.90;;;;;;5111272;28;20462;-61
2023/04/24 12:28:53;;;;;;;7.80;5.25;;;13.00;99.90;;;;;;5112607;28;20490;-60
2023/04/24 12:31:19;;;;;;;8.55;5.35;;;13.00;99.90;;;;;;5111190;28;20444;-59
2023/04/24 12:33:46;;;;;;;10.77;5.90;;;13.10;99.90;;;;;;5113845;28;20421;-57
2023/04/24 12:36:13;;;;;;;9.57;6.28;;;13.10;99.90;;;;;;5107905;28;20034;-60
2023/04/24 12:38:40;;;;;;;11.15;5.47;;;13.20;99.90;;;;;;5094325;28;20471;-61
2023/04/24 12:41:07;;;;;;;16.42;5.60;;;13.20;99.90;;;;;;5093910;28;20101;-60
2023/04/24 12:43:34;;;;;;;9.52;4.97;;;13.10;99.90;;;;;;5093656;28;20123;-58